CheckWX is a tool to help pilots better visualize weather data.  It is not intended as a substitute for an official pre-flight weather briefing.

02:10:56 UTC

KCVH METAR
Hollister Municipal Airport
Hollister, California, USA
Current

11 mins ago

KCVH 180200Z AUTO 33008KT 10SM FEW060 07/02 A3001 RMK A01
Observed
Feb-18 @ 02:00 UTC
Wind
  • 330° at 8 KTS
Visibility
10 SM
Flight Rules
VFR
Cloud Levels
  • Few at 6,000' AGL
Temperature
C / 45°F
Dewpoint
C / 36°F
Humidity
71%
Altimeter
30.01" Hg
Pressure
1016.22 hPa
Previous

16 mins ago

KCVH 180155Z AUTO 32008KT 10SM FEW060 07/02 A3001 RMK A01
Observed
Feb-18 @ 01:55 UTC
Wind
  • 320° at 8 KTS
Visibility
10 SM
Flight Rules
VFR
Cloud Levels
  • Few at 6,000' AGL
Temperature
C / 45°F
Dewpoint
C / 36°F
Humidity
71%
Altimeter
30.01" Hg
Pressure
1016.22 hPa
Previous

36 mins ago

KCVH 180135Z AUTO 31005KT 10SM CLR 09/03 A3001 RMK A01
Observed
Feb-18 @ 01:35 UTC
Wind
  • 310° at 5 KTS
Visibility
10 SM
Flight Rules
VFR
Cloud Levels
  • Clear skies
Temperature
C / 48°F
Dewpoint
C / 37°F
Humidity
66%
Altimeter
30.01" Hg
Pressure
1016.22 hPa